Time;durP1;ratioP1;P1;durP2;ratioP2;P2;SDS_P1;SDS_P2;PMS_P1;PMS_P2;Temp;Humidity;BMP_temperature;BMP_pressure;BME280_temperature;BME280_humidity;BME280_pressure;Samples;Min_cycle;Max_cycle;Signal;HPM_P1;HPM_P2
2023/04/03 00:01:31;;;;;;;5.15;1.70;;;2.70;99.90;;;;;;5021305;28;20033;-60
2023/04/03 00:03:57;;;;;;;4.95;1.65;;;2.70;99.90;;;;;;5038512;28;20037;-61
2023/04/03 00:06:23;;;;;;;5.07;1.50;;;2.70;99.90;;;;;;5037016;28;20132;-60
2023/04/03 00:08:49;;;;;;;4.00;1.80;;;2.70;99.90;;;;;;5021744;28;20249;-61
2023/04/03 00:11:15;;;;;;;4.43;1.45;;;2.70;99.90;;;;;;5020243;28;20058;-61
2023/04/03 00:13:41;;;;;;;6.88;2.03;;;2.70;99.90;;;;;;5021396;28;20111;-61
2023/04/03 00:16:08;;;;;;;6.00;1.65;;;2.60;99.90;;;;;;5027030;28;20058;-60
2023/04/03 00:18:34;;;;;;;5.35;1.33;;;2.60;99.90;;;;;;5017282;28;20084;-60
2023/04/03 00:21:00;;;;;;;5.70;1.40;;;2.60;99.90;;;;;;5018200;28;20033;-60
2023/04/03 00:23:26;;;;;;;4.45;1.35;;;2.60;99.90;;;;;;5017686;28;20510;-61
2023/04/03 00:25:52;;;;;;;4.47;1.27;;;2.60;99.90;;;;;;5017618;28;20038;-61
2023/04/03 00:28:19;;;;;;;4.15;1.30;;;2.60;99.90;;;;;;5017443;28;20053;-60
2023/04/03 00:30:44;;;;;;;4.05;1.40;;;2.60;99.90;;;;;;5001720;28;20394;-60
2023/04/03 00:33:13;;;;;;;5.35;1.30;;;2.60;99.90;;;;;;5034363;28;20037;-61
2023/04/03 00:35:40;;;;;;;5.00;1.67;;;2.60;99.90;;;;;;5001451;28;20057;-61
2023/04/03 00:38:05;;;;;;;4.10;1.50;;;2.50;99.90;;;;;;5035086;28;20041;-60
2023/04/03 00:40:38;;;;;;;2.75;1.25;;;2.50;99.90;;;;;;5017172;28;20038;-60
2023/04/03 00:43:18;;;;;;;3.97;1.35;;;2.50;99.90;;;;;;5034761;28;20545;-61
2023/04/03 00:45:47;;;;;;;4.63;1.20;;;2.50;99.90;;;;;;5035198;28;20490;-61
2023/04/03 00:48:48;;;;;;;5.38;1.40;;;2.50;99.90;;;;;;5015973;28;20490;-60
2023/04/03 00:51:23;;;;;;;3.95;0.90;;;2.40;99.90;;;;;;5000316;28;20049;-61
2023/04/03 00:53:51;;;;;;;2.67;1.00;;;2.40;99.90;;;;;;5000364;28;20041;-61
2023/04/03 00:56:21;;;;;;;3.78;1.33;;;2.30;99.90;;;;;;5016735;28;20045;-61
2023/04/03 00:58:55;;;;;;;3.78;1.20;;;2.30;99.90;;;;;;5041198;28;20033;-60
2023/04/03 01:01:24;;;;;;;3.83;1.10;;;2.30;99.90;;;;;;5034380;28;20045;-61
2023/04/03 01:03:50;;;;;;;2.10;0.85;;;2.30;99.90;;;;;;5037055;28;20037;-60
2023/04/03 01:06:19;;;;;;;3.05;1.00;;;2.20;99.90;;;;;;5054363;28;20390;-61
2023/04/03 01:08:46;;;;;;;2.85;1.15;;;2.20;99.90;;;;;;5032955;28;20049;-60
2023/04/03 01:11:12;;;;;;;3.17;1.30;;;2.20;99.90;;;;;;5016821;28;20053;-61
2023/04/03 01:13:38;;;;;;;3.35;1.33;;;2.20;99.90;;;;;;5017105;28;20601;-60
2023/04/03 01:16:05;;;;;;;3.35;1.02;;;2.20;99.90;;;;;;5016114;28;20041;-61
2023/04/03 01:18:32;;;;;;;5.70;1.40;;;2.10;99.90;;;;;;5034676;28;20042;-60
2023/04/03 01:21:19;;;;;;;3.72;1.33;;;2.10;99.90;;;;;;5017059;28;20068;-61
2023/04/03 01:23:54;;;;;;;3.50;1.17;;;2.10;99.90;;;;;;5034247;28;20049;-61
2023/04/03 01:26:19;;;;;;;2.63;1.10;;;2.10;99.90;;;;;;5034006;28;20405;-61
2023/04/03 01:28:45;;;;;;;3.58;1.25;;;2.00;99.90;;;;;;5000567;28;20118;-61
2023/04/03 01:31:26;;;;;;;4.75;1.40;;;2.00;99.90;;;;;;5016099;28;20038;-61
2023/04/03 01:33:52;;;;;;;3.97;1.27;;;2.00;99.90;;;;;;5000569;28;20142;-61
2023/04/03 01:36:21;;;;;;;4.20;1.00;;;2.00;99.90;;;;;;4998846;28;20494;-60
2023/04/03 01:38:47;;;;;;;5.32;1.40;;;1.90;99.90;;;;;;5034165;28;20046;-60
2023/04/03 01:41:13;;;;;;;4.85;0.93;;;1.90;99.90;;;;;;5015971;28;20048;-60
2023/04/03 01:43:39;;;;;;;2.72;0.80;;;1.90;99.90;;;;;;5015457;28;20050;-60
2023/04/03 01:46:05;;;;;;;4.72;1.17;;;1.90;99.90;;;;;;5015954;28;20123;-60
2023/04/03 01:48:30;;;;;;;5.13;1.20;;;1.80;99.90;;;;;;5016542;28;20081;-60
2023/04/03 01:50:56;;;;;;;4.63;1.20;;;1.80;99.90;;;;;;5015837;28;20045;-60
2023/04/03 01:53:22;;;;;;;4.13;1.10;;;1.80;99.90;;;;;;5015758;28;20037;-60
2023/04/03 01:55:48;;;;;;;4.28;1.25;;;1.80;99.90;;;;;;5016238;28;20037;-61
2023/04/03 01:58:14;;;;;;;4.85;1.45;;;1.80;99.90;;;;;;5014800;28;20041;-60
2023/04/03 02:00:39;;;;;;;2.75;1.08;;;1.70;99.90;;;;;;5016170;28;20041;-61
2023/04/03 02:03:06;;;;;;;4.30;1.55;;;1.70;99.90;;;;;;4999377;28;20044;-61
2023/04/03 02:05:32;;;;;;;3.60;1.27;;;1.70;99.90;;;;;;5015275;28;20049;-61
2023/04/03 02:07:58;;;;;;;3.03;1.17;;;1.70;99.90;;;;;;5015897;28;20033;-60
2023/04/03 02:10:23;;;;;;;2.88;1.17;;;1.70;99.90;;;;;;5033070;28;20452;-60
2023/04/03 02:12:49;;;;;;;3.08;1.60;;;1.70;99.90;;;;;;5015041;28;20049;-60
2023/04/03 02:15:15;;;;;;;2.65;1.10;;;1.70;99.90;;;;;;4999092;28;20055;-60
2023/04/03 02:17:40;;;;;;;3.90;1.13;;;1.70;99.90;;;;;;5032787;28;20036;-61
2023/04/03 02:20:07;;;;;;;5.47;1.58;;;1.70;99.90;;;;;;5032888;28;20033;-60
2023/04/03 02:22:32;;;;;;;4.45;1.15;;;1.70;99.90;;;;;;5015811;28;20041;-61
2023/04/03 02:24:58;;;;;;;3.60;1.30;;;1.70;99.90;;;;;;5007262;28;20144;-61
2023/04/03 02:27:24;;;;;;;4.30;1.20;;;1.60;99.90;;;;;;5017938;28;20076;-60
2023/04/03 02:29:50;;;;;;;4.18;1.40;;;1.60;99.90;;;;;;5047309;28;20033;-61
2023/04/03 02:32:15;;;;;;;3.47;1.00;;;1.60;99.90;;;;;;5014252;28;20049;-61
2023/04/03 02:34:41;;;;;;;5.22;1.42;;;1.60;99.90;;;;;;5033394;28;20044;-60
2023/04/03 02:37:06;;;;;;;3.75;1.23;;;1.60;99.90;;;;;;5015244;28;20033;-60
2023/04/03 02:39:32;;;;;;;4.38;1.42;;;1.60;99.90;;;;;;4998356;28;20026;-61
2023/04/03 02:41:58;;;;;;;2.33;0.98;;;1.60;99.90;;;;;;5033038;28;20049;-61
2023/04/03 02:44:24;;;;;;;4.70;1.40;;;1.50;99.90;;;;;;5015096;28;20037;-61
2023/04/03 02:46:50;;;;;;;5.00;1.23;;;1.50;99.90;;;;;;4998495;28;20087;-60
2023/04/03 02:49:15;;;;;;;4.10;1.27;;;1.50;99.90;;;;;;5032518;28;20072;-61
2023/04/03 02:51:41;;;;;;;6.82;1.42;;;1.50;99.90;;;;;;5015243;28;20120;-60
2023/04/03 02:54:07;;;;;;;3.45;1.13;;;1.50;99.90;;;;;;5031925;28;20440;-60
2023/04/03 02:56:34;;;;;;;7.38;1.50;;;1.50;99.90;;;;;;5015108;28;20095;-60
2023/04/03 02:58:59;;;;;;;4.30;1.30;;;1.40;99.90;;;;;;5015222;28;20383;-60
2023/04/03 03:01:28;;;;;;;9.00;2.22;;;1.40;99.90;;;;;;5013769;28;20071;-61
2023/04/03 03:03:54;;;;;;;7.15;1.83;;;1.40;99.90;;;;;;5015039;28;20052;-60
2023/04/03 03:06:19;;;;;;;6.38;2.00;;;1.30;99.90;;;;;;5014342;28;20049;-61
2023/04/03 03:08:45;;;;;;;3.88;1.50;;;1.30;99.90;;;;;;5014305;28;20402;-60
2023/04/03 03:11:11;;;;;;;4.90;1.83;;;1.30;99.90;;;;;;5014213;28;20074;-61
2023/04/03 03:13:37;;;;;;;4.75;1.45;;;1.30;99.90;;;;;;5032696;28;20072;-61
2023/04/03 03:16:03;;;;;;;4.13;1.73;;;1.30;99.90;;;;;;5013519;28;20041;-60
2023/04/03 03:18:29;;;;;;;5.10;1.35;;;1.30;99.90;;;;;;5032430;28;20033;-60
2023/04/03 03:20:57;;;;;;;4.68;1.73;;;1.20;99.90;;;;;;5032492;28;20072;-60
2023/04/03 03:23:25;;;;;;;5.85;1.70;;;1.20;99.90;;;;;;4997883;28;20044;-61
2023/04/03 03:25:59;;;;;;;6.82;2.00;;;1.20;99.90;;;;;;5014274;28;20049;-61
2023/04/03 03:28:25;;;;;;;4.30;1.40;;;1.20;99.90;;;;;;5013440;28;20099;-61
2023/04/03 03:30:51;;;;;;;3.92;1.35;;;1.20;99.90;;;;;;5014871;28;20478;-61
2023/04/03 03:33:17;;;;;;;3.85;1.60;;;1.10;99.90;;;;;;5014138;28;20042;-60
2023/04/03 03:35:43;;;;;;;4.75;1.85;;;1.10;99.90;;;;;;5013961;28;20077;-60
2023/04/03 03:38:09;;;;;;;15.82;7.40;;;1.10;99.90;;;;;;5031609;28;20044;-60
2023/04/03 03:40:35;;;;;;;8.30;4.18;;;1.10;99.90;;;;;;5014566;28;20104;-61
2023/04/03 03:43:01;;;;;;;9.68;4.18;;;1.10;99.90;;;;;;5001456;28;20086;-60
2023/04/03 03:45:27;;;;;;;7.78;3.08;;;1.00;99.90;;;;;;4994835;28;20523;-60
2023/04/03 03:47:52;;;;;;;7.25;2.72;;;1.00;99.90;;;;;;4995090;28;20100;-61
2023/04/03 03:50:18;;;;;;;8.40;3.05;;;1.00;99.90;;;;;;4977390;28;20471;-60
2023/04/03 03:52:44;;;;;;;7.78;2.40;;;1.00;99.90;;;;;;5012328;28;20446;-60
2023/04/03 03:55:10;;;;;;;6.07;2.53;;;0.90;99.90;;;;;;5007241;28;20050;-61
2023/04/03 03:57:36;;;;;;;8.85;2.05;;;0.90;99.90;;;;;;5013415;28;20060;-61
2023/04/03 04:00:03;;;;;;;7.65;2.90;;;0.90;99.90;;;;;;5009752;28;20118;-60
2023/04/03 04:02:29;;;;;;;6.95;2.60;;;0.90;99.90;;;;;;4978236;28;20069;-61
2023/04/03 04:04:54;;;;;;;9.07;3.28;;;0.90;99.90;;;;;;4977839;28;20491;-60
2023/04/03 04:07:20;;;;;;;5.75;2.92;;;0.90;99.90;;;;;;4994051;28;20417;-60
2023/04/03 04:09:46;;;;;;;6.82;2.60;;;0.90;99.90;;;;;;4994910;28;20407;-60
2023/04/03 04:12:11;;;;;;;7.10;3.47;;;0.90;99.90;;;;;;4993495;28;20034;-61
2023/04/03 04:14:37;;;;;;;4.05;1.52;;;0.90;99.90;;;;;;4994680;28;20095;-60
2023/04/03 04:17:03;;;;;;;6.60;2.72;;;0.90;99.90;;;;;;4994146;28;20049;-60
2023/04/03 04:19:28;;;;;;;9.77;4.30;;;0.90;99.90;;;;;;5011041;28;20037;-60
2023/04/03 04:21:54;;;;;;;6.18;2.45;;;0.80;99.90;;;;;;5011999;28;20038;-60
2023/04/03 04:24:22;;;;;;;10.63;2.88;;;0.80;99.90;;;;;;5010923;28;20119;-61
2023/04/03 04:26:48;;;;;;;6.60;2.35;;;0.80;99.90;;;;;;4994371;28;20052;-60
2023/04/03 04:29:14;;;;;;;5.22;1.80;;;0.80;99.90;;;;;;4993991;28;20113;-60
2023/04/03 04:31:40;;;;;;;5.43;1.73;;;0.70;99.90;;;;;;4993704;28;20049;-61
2023/04/03 04:34:05;;;;;;;6.00;1.95;;;0.70;99.90;;;;;;4977738;28;20046;-61
2023/04/03 04:36:31;;;;;;;7.60;2.45;;;0.70;99.90;;;;;;4979188;28;20073;-61
2023/04/03 04:38:58;;;;;;;7.57;2.38;;;0.70;99.90;;;;;;5015052;28;20115;-61
2023/04/03 04:41:24;;;;;;;6.70;2.70;;;0.70;99.90;;;;;;4997332;28;20048;-61
2023/04/03 04:43:50;;;;;;;12.07;3.65;;;0.70;99.90;;;;;;5016555;28;20049;-60
2023/04/03 04:46:16;;;;;;;7.45;2.33;;;0.70;99.90;;;;;;5034142;28;20402;-61
2023/04/03 04:48:42;;;;;;;5.93;2.50;;;0.60;99.90;;;;;;5001431;28;20482;-61
2023/04/03 04:51:07;;;;;;;7.97;2.80;;;0.70;99.90;;;;;;5016878;28;20080;-61
2023/04/03 04:53:33;;;;;;;6.15;2.80;;;0.70;99.90;;;;;;5016823;28;20046;-61
2023/04/03 04:55:59;;;;;;;9.25;3.30;;;0.60;99.90;;;;;;5017377;28;20100;-61
2023/04/03 04:58:25;;;;;;;5.25;1.73;;;0.60;99.90;;;;;;5017018;28;20080;-61
2023/04/03 05:01:09;;;;;;;8.20;2.50;;;0.60;99.90;;;;;;5000098;28;20041;-61
2023/04/03 05:03:35;;;;;;;5.88;2.20;;;0.60;99.90;;;;;;5017401;28;20072;-61
2023/04/03 05:06:01;;;;;;;4.88;2.30;;;0.60;99.90;;;;;;5034506;28;20038;-61
2023/04/03 05:08:27;;;;;;;9.07;2.53;;;0.60;99.90;;;;;;5033743;28;20038;-61
2023/04/03 05:10:53;;;;;;;5.35;2.35;;;0.60;99.90;;;;;;5026516;28;20040;-61
2023/04/03 05:13:19;;;;;;;6.00;2.80;;;0.60;99.90;;;;;;5054458;28;20486;-61
2023/04/03 05:15:45;;;;;;;10.82;2.80;;;0.60;99.90;;;;;;5019592;28;20048;-61
2023/04/03 05:18:10;;;;;;;9.90;3.47;;;0.50;99.90;;;;;;5036508;28;20401;-61
2023/04/03 05:20:36;;;;;;;11.50;2.55;;;0.50;99.90;;;;;;5035873;28;20048;-60
2023/04/03 05:23:03;;;;;;;4.93;2.50;;;0.50;99.90;;;;;;5036656;28;20447;-61
2023/04/03 05:25:29;;;;;;;5.88;2.05;;;0.50;99.90;;;;;;5036413;28;20102;-61
2023/04/03 05:27:55;;;;;;;7.13;2.78;;;0.50;99.90;;;;;;5053894;28;20084;-61
2023/04/03 05:30:21;;;;;;;6.35;1.95;;;0.50;99.90;;;;;;5034138;28;20116;-61
2023/04/03 05:32:47;;;;;;;6.60;2.30;;;0.50;99.90;;;;;;5036571;28;20517;-61
2023/04/03 05:35:13;;;;;;;6.00;2.25;;;0.50;99.90;;;;;;5052804;28;20048;-61
2023/04/03 05:37:38;;;;;;;5.07;1.90;;;0.50;99.90;;;;;;5036402;28;20409;-61
2023/04/03 05:40:05;;;;;;;6.90;2.53;;;0.50;99.90;;;;;;5035754;28;20029;-61
2023/04/03 05:42:31;;;;;;;7.80;2.35;;;0.50;99.90;;;;;;5027575;28;20379;-61
2023/04/03 05:44:57;;;;;;;6.82;2.30;;;0.50;99.90;;;;;;5016153;28;20076;-61
2023/04/03 05:47:23;;;;;;;6.70;2.17;;;0.60;99.90;;;;;;5033253;28;20092;-61
2023/04/03 05:49:48;;;;;;;6.45;2.20;;;0.60;99.90;;;;;;5015288;28;20083;-60
2023/04/03 05:52:20;;;;;;;12.15;4.70;;;0.60;99.90;;;;;;5033293;28;20041;-61
2023/04/03 05:54:47;;;;;;;18.65;9.77;;;0.60;99.90;;;;;;5016409;28;20037;-61
2023/04/03 05:57:14;;;;;;;38.92;18.30;;;0.70;99.90;;;;;;4998536;28;20041;-61
2023/04/03 05:59:40;;;;;;;29.60;14.10;;;0.60;99.90;;;;;;5015991;28;20090;-61
2023/04/03 06:02:06;;;;;;;25.83;14.25;;;0.70;99.90;;;;;;4999213;28;20041;-61
2023/04/03 06:04:31;;;;;;;16.17;7.03;;;0.70;99.90;;;;;;4998694;28;20121;-60
2023/04/03 06:06:58;;;;;;;11.23;6.38;;;0.80;99.90;;;;;;5016394;28;20398;-61
2023/04/03 06:09:26;;;;;;;10.88;6.30;;;0.80;99.90;;;;;;5015329;28;20482;-60
2023/04/03 06:11:53;;;;;;;12.52;7.07;;;0.80;99.90;;;;;;4999144;28;20430;-60
2023/04/03 06:14:19;;;;;;;9.55;5.35;;;0.90;99.90;;;;;;4999300;28;20071;-61
2023/04/03 06:16:45;;;;;;;10.20;4.68;;;0.90;99.90;;;;;;5015651;28;20410;-60
2023/04/03 06:19:11;;;;;;;8.52;3.20;;;1.00;99.90;;;;;;5008436;28;20041;-61
2023/04/03 06:21:37;;;;;;;7.78;3.25;;;1.00;99.90;;;;;;5014777;28;20046;-60
2023/04/03 06:24:04;;;;;;;7.72;2.63;;;1.00;99.90;;;;;;5032418;28;20064;-60
2023/04/03 06:26:30;;;;;;;7.97;3.78;;;1.10;99.90;;;;;;4999291;28;20132;-60
2023/04/03 06:28:56;;;;;;;8.63;3.20;;;1.10;99.90;;;;;;5015628;28;20527;-60
2023/04/03 06:31:22;;;;;;;8.48;3.08;;;1.20;99.90;;;;;;5014149;28;20047;-60
2023/04/03 06:33:48;;;;;;;9.82;3.50;;;1.30;99.90;;;;;;5015611;28;20055;-60
2023/04/03 06:36:13;;;;;;;10.30;3.33;;;1.30;99.90;;;;;;4983577;28;20491;-60
2023/04/03 06:38:39;;;;;;;11.75;2.90;;;1.40;99.90;;;;;;4992617;28;20041;-60
2023/04/03 06:41:05;;;;;;;7.05;2.67;;;1.50;99.90;;;;;;4992758;28;20041;-60
2023/04/03 06:43:32;;;;;;;7.55;2.67;;;1.60;99.90;;;;;;4992682;28;20057;-60
2023/04/03 06:45:57;;;;;;;10.32;3.22;;;1.60;99.90;;;;;;4995458;28;20554;-60
2023/04/03 06:48:23;;;;;;;10.00;3.08;;;1.70;99.90;;;;;;5012650;28;20047;-60
2023/04/03 06:50:49;;;;;;;9.25;2.80;;;1.70;99.90;;;;;;5012596;28;20041;-60
2023/04/03 06:53:15;;;;;;;7.75;2.67;;;1.80;99.90;;;;;;5009124;28;20045;-60
2023/04/03 06:55:41;;;;;;;17.90;7.90;;;1.90;99.90;;;;;;5012743;28;20095;-60
2023/04/03 06:58:07;;;;;;;10.98;4.18;;;1.90;99.90;;;;;;5023538;28;20041;-60
2023/04/03 07:00:33;;;;;;;8.77;3.85;;;2.00;99.90;;;;;;5012319;28;20047;-60
2023/04/03 07:02:59;;;;;;;9.65;4.35;;;2.10;99.90;;;;;;5048830;28;20486;-60
2023/04/03 07:05:25;;;;;;;8.02;2.85;;;2.20;99.90;;;;;;5031569;28;20561;-60
2023/04/03 07:07:52;;;;;;;6.20;2.53;;;2.20;99.90;;;;;;5031382;28;20758;-60
2023/04/03 07:10:18;;;;;;;9.18;3.05;;;2.20;99.90;;;;;;5048854;28;20044;-60
2023/04/03 07:12:44;;;;;;;10.02;2.78;;;2.30;99.90;;;;;;5049467;28;20036;-60
2023/04/03 07:15:12;;;;;;;7.03;2.78;;;2.40;99.90;;;;;;5009996;28;20048;-60
2023/04/03 07:17:37;;;;;;;12.63;3.40;;;2.50;99.90;;;;;;5026227;28;20090;-60
2023/04/03 07:20:03;;;;;;;8.55;2.95;;;2.50;99.90;;;;;;5029869;28;20032;-60
2023/04/03 07:22:30;;;;;;;8.27;3.30;;;2.60;99.90;;;;;;5030934;28;20043;-60
2023/04/03 07:24:55;;;;;;;7.68;2.70;;;2.70;99.90;;;;;;5031939;28;20489;-60
2023/04/03 07:27:21;;;;;;;6.30;2.40;;;2.70;99.90;;;;;;5026349;28;20037;-60
2023/04/03 07:29:48;;;;;;;5.78;2.83;;;2.80;99.90;;;;;;5012907;28;20569;-61
2023/04/03 07:32:14;;;;;;;6.40;2.35;;;2.80;99.90;;;;;;5006200;28;20430;-60
2023/04/03 07:34:40;;;;;;;8.15;2.30;;;2.90;99.90;;;;;;4994777;28;20045;-61
2023/04/03 07:37:06;;;;;;;7.07;2.17;;;3.00;99.90;;;;;;5011127;28;20038;-60
2023/04/03 07:39:32;;;;;;;6.18;2.22;;;3.10;99.90;;;;;;5011865;28;20041;-61
2023/04/03 07:41:58;;;;;;;6.60;3.35;;;3.10;99.90;;;;;;5013313;28;20057;-61
2023/04/03 07:44:24;;;;;;;7.53;3.15;;;3.20;99.90;;;;;;5028922;28;20042;-61
2023/04/03 07:46:50;;;;;;;8.77;3.50;;;3.30;99.90;;;;;;5024541;28;20510;-61
2023/04/03 07:49:18;;;;;;;9.00;3.00;;;3.30;99.90;;;;;;4995081;28;20080;-61
2023/04/03 07:51:44;;;;;;;13.85;4.82;;;3.40;99.90;;;;;;4992285;28;20049;-61
2023/04/03 07:54:10;;;;;;;7.18;2.90;;;3.50;99.90;;;;;;5026766;28;20191;-61
2023/04/03 07:56:36;;;;;;;11.02;4.30;;;3.60;99.90;;;;;;5010062;28;20509;-61
2023/04/03 07:59:01;;;;;;;11.75;6.72;;;3.60;99.90;;;;;;5010769;28;20045;-61
2023/04/03 08:01:27;;;;;;;11.52;6.75;;;3.70;99.90;;;;;;5011046;28;20045;-61
2023/04/03 08:03:53;;;;;;;6.43;2.72;;;3.80;99.90;;;;;;5011101;28;20098;-61
2023/04/03 08:06:19;;;;;;;8.77;4.28;;;3.80;99.90;;;;;;4993584;28;20128;-61
2023/04/03 08:08:45;;;;;;;9.02;3.95;;;3.90;99.90;;;;;;5008767;28;20041;-61
2023/04/03 08:11:11;;;;;;;9.85;4.28;;;4.10;99.90;;;;;;4998692;28;20069;-61
2023/04/03 08:13:37;;;;;;;8.75;3.17;;;4.10;99.90;;;;;;5027590;28;20072;-61
2023/04/03 08:16:17;;;;;;;7.93;1.73;;;4.30;99.90;;;;;;5002727;28;20038;-61
2023/04/03 08:18:43;;;;;;;7.13;1.85;;;4.40;99.90;;;;;;5014355;28;20042;-61
2023/04/03 08:21:11;;;;;;;11.85;5.05;;;4.50;99.90;;;;;;5030124;28;20046;-61
2023/04/03 08:23:38;;;;;;;6.03;2.10;;;4.60;99.90;;;;;;5012448;28;20120;-61
2023/04/03 08:26:12;;;;;;;9.13;3.10;;;4.70;99.90;;;;;;4997035;28;20771;-61
2023/04/03 08:28:39;;;;;;;8.23;2.92;;;4.80;99.90;;;;;;5001872;28;20100;-61
2023/04/03 08:31:06;;;;;;;7.68;2.80;;;4.80;99.90;;;;;;5027005;28;20121;-61
2023/04/03 08:33:35;;;;;;;6.72;3.10;;;4.90;99.90;;;;;;4997436;28;20046;-61
2023/04/03 08:36:01;;;;;;;6.03;2.65;;;4.90;99.90;;;;;;5002235;28;20056;-61
2023/04/03 08:38:27;;;;;;;6.93;3.42;;;5.00;99.90;;;;;;4999966;28;20038;-61
2023/04/03 08:41:32;;;;;;;13.30;7.38;;;5.10;99.90;;;;;;5005685;28;20056;-61
2023/04/03 08:44:36;;;;;;;6.97;2.42;;;5.10;99.90;;;;;;5018590;28;20050;-60
2023/04/03 08:47:20;;;;;;;10.77;2.40;;;5.30;99.90;;;;;;5023088;28;20107;-61
2023/04/03 08:49:59;;;;;;;8.35;2.03;;;5.40;99.90;;;;;;5027780;28;20057;-61
2023/04/03 08:52:52;;;;;;;5.32;2.25;;;5.40;99.90;;;;;;5001079;28;20911;-61
2023/04/03 08:55:42;;;;;;;5.65;1.58;;;5.50;99.90;;;;;;5027975;28;20388;-61
2023/04/03 08:58:21;;;;;;;4.53;1.75;;;5.50;99.90;;;;;;5031472;28;20046;-61
2023/04/03 09:00:55;;;;;;;9.48;3.05;;;5.60;99.90;;;;;;5018881;28;20129;-61
2023/04/03 09:03:22;;;;;;;3.50;1.30;;;5.70;99.90;;;;;;5023466;28;20491;-61
2023/04/03 09:06:15;;;;;;;5.35;1.30;;;5.80;99.90;;;;;;5025267;28;20038;-61
2023/04/03 09:09:08;;;;;;;4.88;1.40;;;5.90;99.90;;;;;;5018016;28;20164;-61
2023/04/03 09:11:33;;;;;;;5.25;1.85;;;6.00;99.90;;;;;;5020973;28;20120;-61
2023/04/03 09:14:34;;;;;;;4.53;1.38;;;6.10;99.90;;;;;;5013200;28;20501;-61
2023/04/03 09:17:09;;;;;;;2.55;0.90;;;6.10;99.90;;;;;;5019754;28;20041;-61
2023/04/03 09:20:00;;;;;;;3.22;1.13;;;6.20;99.90;;;;;;5030735;28;20044;-61
2023/04/03 09:22:31;;;;;;;4.53;1.20;;;6.20;99.90;;;;;;5023348;28;20706;-61
2023/04/03 09:25:01;;;;;;;2.28;0.93;;;6.20;99.90;;;;;;5008935;28;20100;-61
2023/04/03 09:27:27;;;;;;;3.40;1.27;;;6.30;97.80;;;;;;5022917;28;20069;-61
2023/04/03 09:29:55;;;;;;;2.95;0.90;;;6.30;99.10;;;;;;5002045;28;20559;-61
2023/04/03 09:32:36;;;;;;;3.80;0.95;;;6.40;98.00;;;;;;5029836;28;20041;-61
2023/04/03 09:35:18;;;;;;;3.40;1.00;;;6.50;97.40;;;;;;5014477;28;20077;-60
2023/04/03 09:37:47;;;;;;;4.97;1.52;;;6.60;96.90;;;;;;5021135;28;20041;-60
2023/04/03 09:40:25;;;;;;;4.60;1.42;;;6.70;97.00;;;;;;5029473;28;20076;-61
2023/04/03 09:42:56;;;;;;;3.95;0.88;;;6.80;95.50;;;;;;5024709;28;20057;-60
2023/04/03 09:45:29;;;;;;;4.00;1.20;;;6.80;94.00;;;;;;5041702;28;20405;-61
2023/04/03 09:48:26;;;;;;;4.25;1.05;;;6.90;94.80;;;;;;5050963;28;20045;-61
2023/04/03 09:51:04;;;;;;;3.30;0.90;;;6.90;94.90;;;;;;5001848;28;20057;-61
2023/04/03 09:53:40;;;;;;;1.60;0.65;;;6.90;94.50;;;;;;5030490;28;20188;-61
2023/04/03 09:56:15;;;;;;;3.78;0.90;;;6.90;92.40;;;;;;4998334;28;20057;-61
2023/04/03 09:58:43;;;;;;;2.17;0.70;;;6.90;89.90;;;;;;4994063;28;20483;-61
2023/04/03 10:01:29;;;;;;;2.70;0.80;;;6.90;90.70;;;;;;5016367;28;20117;-61
2023/04/03 10:04:14;;;;;;;2.83;1.00;;;7.10;90.10;;;;;;4993714;28;20097;-60
2023/04/03 10:06:58;;;;;;;2.88;1.15;;;7.20;91.10;;;;;;5016039;28;20046;-62
2023/04/03 10:09:29;;;;;;;3.92;0.82;;;7.30;90.40;;;;;;5006576;28;20048;-62
2023/04/03 10:12:14;;;;;;;2.20;0.88;;;7.40;87.70;;;;;;4999463;28;20056;-62
2023/04/03 10:14:57;;;;;;;2.70;0.60;;;7.50;85.40;;;;;;5017592;28;20051;-61
2023/04/03 10:17:32;;;;;;;3.15;0.80;;;7.50;81.90;;;;;;4997473;28;20038;-62
2023/04/03 10:20:03;;;;;;;4.30;1.05;;;7.50;83.20;;;;;;5033902;28;20431;-61
2023/04/03 10:22:47;;;;;;;2.40;0.80;;;7.60;83.50;;;;;;5014002;28;20049;-61
2023/04/03 10:25:20;;;;;;;2.25;0.68;;;7.60;81.90;;;;;;4992417;28;20072;-61
2023/04/03 10:27:53;;;;;;;2.03;0.85;;;7.50;79.10;;;;;;5008533;28;20049;-61
2023/04/03 10:30:32;;;;;;;2.20;0.68;;;7.50;77.50;;;;;;5027546;28;20044;-61
2023/04/03 10:33:26;;;;;;;2.33;0.82;;;7.50;75.70;;;;;;5011378;28;20040;-61
2023/04/03 10:36:21;;;;;;;3.33;1.05;;;7.60;77.20;;;;;;5033031;28;20045;-61
2023/04/03 10:39:03;;;;;;;2.30;0.90;;;7.70;73.90;;;;;;4998232;28;20390;-67
2023/04/03 10:42:01;;;;;;;2.63;0.77;;;7.70;75.00;;;;;;5028624;28;20077;-62
2023/04/03 10:44:44;;;;;;;3.65;0.82;;;7.80;74.30;;;;;;4968264;28;20041;-61
2023/04/03 10:47:25;;;;;;;3.33;0.90;;;7.80;74.40;;;;;;5009665;28;20045;-61
2023/04/03 10:50:08;;;;;;;4.78;1.13;;;7.80;73.30;;;;;;5015189;28;20041;-61
2023/04/03 10:53:26;;;;;;;2.42;0.63;;;7.80;73.20;;;;;;5000190;28;20056;-61
2023/04/03 10:56:20;;;;;;;2.95;1.10;;;7.90;70.50;;;;;;4988772;28;20483;-62
2023/04/03 10:58:54;;;;;;;2.50;1.00;;;7.90;72.60;;;;;;5011017;28;20044;-63
2023/04/03 11:01:28;;;;;;;2.10;0.80;;;8.00;73.10;;;;;;5005079;28;20096;-61
2023/04/03 11:03:58;;;;;;;3.80;0.80;;;8.10;71.80;;;;;;5014446;28;20038;-63
2023/04/03 11:06:34;;;;;;;2.05;0.80;;;8.10;72.40;;;;;;5011915;28;20046;-61
2023/04/03 11:09:43;;;;;;;4.85;1.20;;;8.10;71.60;;;;;;5012405;28;20383;-62
2023/04/03 11:12:24;;;;;;;1.88;1.00;;;8.20;70.70;;;;;;4937437;29;20047;-62
2023/04/03 11:14:53;;;;;;;3.83;0.70;;;8.10;71.00;;;;;;4935518;29;20512;-63
2023/04/03 11:17:28;;;;;;;6.25;1.30;;;8.20;72.50;;;;;;4989264;28;20057;-61
2023/04/03 11:23:29;;;;;;;3.42;0.93;;;8.50;73.30;;;;;;5005798;28;20052;-63
2023/04/03 11:26:05;;;;;;;1.90;0.77;;;8.60;73.40;;;;;;4992581;28;20498;-61
2023/04/03 11:28:31;;;;;;;3.50;1.13;;;8.70;73.20;;;;;;5014221;28;20045;-61
2023/04/03 11:31:24;;;;;;;3.63;1.00;;;8.70;73.40;;;;;;4996311;28;20037;-61
2023/04/03 11:34:04;;;;;;;6.03;1.27;;;8.70;73.10;;;;;;4994376;28;20042;-61
2023/04/03 11:36:42;;;;;;;5.47;1.02;;;8.80;72.60;;;;;;4998912;28;20124;-61
2023/04/03 11:39:38;;;;;;;4.28;1.33;;;8.80;69.60;;;;;;5024214;28;20523;-61
2023/04/03 11:42:16;;;;;;;3.38;1.08;;;8.80;70.50;;;;;;5015914;28;20068;-61
2023/04/03 11:44:42;;;;;;;4.45;1.27;;;8.90;72.90;;;;;;5033852;28;20532;-61
2023/04/03 11:47:12;;;;;;;4.10;1.25;;;8.90;72.00;;;;;;4998851;28;20041;-61
2023/04/03 11:49:53;;;;;;;7.57;1.60;;;8.80;70.60;;;;;;5029988;28;20041;-61
2023/04/03 11:52:38;;;;;;;2.53;0.90;;;8.70;71.20;;;;;;4998856;28;20090;-61
2023/04/03 11:55:26;;;;;;;4.15;1.20;;;8.60;70.00;;;;;;5014693;28;20095;-61
2023/04/03 11:57:58;;;;;;;2.58;0.90;;;8.60;70.80;;;;;;5002882;28;20041;-61
2023/04/03 12:00:51;;;;;;;3.20;0.90;;;8.70;71.00;;;;;;5039908;28;20084;-61
2023/04/03 12:03:26;;;;;;;4.78;1.60;;;8.80;70.30;;;;;;5049831;28;20053;-61
2023/04/03 12:05:53;;;;;;;3.67;1.05;;;8.90;71.50;;;;;;5044429;28;20045;-61
2023/04/03 12:08:33;;;;;;;3.28;1.27;;;9.10;72.60;;;;;;5015349;28;20091;-62
2023/04/03 12:11:28;;;;;;;2.88;1.45;;;9.20;71.90;;;;;;5012137;28;20038;-62
2023/04/03 12:13:57;;;;;;;3.53;1.05;;;9.20;71.60;;;;;;5042254;28;20528;-62
2023/04/03 12:16:37;;;;;;;3.38;0.90;;;9.20;70.40;;;;;;5004998;28;20505;-63
2023/04/03 12:19:29;;;;;;;2.85;1.00;;;9.20;69.00;;;;;;5040958;28;20033;-63
2023/04/03 12:21:58;;;;;;;3.15;1.00;;;9.20;68.00;;;;;;5027273;28;20406;-61
2023/04/03 12:24:27;;;;;;;2.20;0.95;;;9.10;70.60;;;;;;5030917;28;20045;-60
2023/04/03 12:27:21;;;;;;;3.63;1.15;;;9.00;69.70;;;;;;5036876;28;20034;-60
2023/04/03 12:29:53;;;;;;;2.22;0.85;;;8.80;68.30;;;;;;5025293;28;20037;-60
2023/04/03 12:32:27;;;;;;;2.15;0.82;;;8.90;69.50;;;;;;5030394;28;20351;-60
2023/04/03 12:35:50;;;;;;;2.72;1.27;;;9.00;70.40;;;;;;5014237;28;20080;-61
2023/04/03 12:38:24;;;;;;;3.47;0.93;;;9.10;70.20;;;;;;4969613;28;20065;-63
2023/04/03 12:41:17;;;;;;;5.30;1.33;;;9.30;71.40;;;;;;4971063;28;20444;-61
2023/04/03 12:43:58;;;;;;;3.90;1.10;;;9.30;70.20;;;;;;5012723;28;20053;-62
2023/04/03 12:46:33;;;;;;;4.25;1.23;;;9.30;71.50;;;;;;5013413;28;20558;-64
2023/04/03 12:48:59;;;;;;;2.25;0.80;;;9.40;71.80;;;;;;5014253;28;20041;-61
2023/04/03 12:51:44;;;;;;;7.07;1.42;;;9.50;72.10;;;;;;5047443;28;20041;-62
2023/04/03 12:54:33;;;;;;;4.00;1.48;;;9.30;69.60;;;;;;5043006;28;20045;-63
2023/04/03 12:57:26;;;;;;;4.00;1.27;;;9.10;69.40;;;;;;5016461;28;20402;-64
2023/04/03 12:59:52;;;;;;;4.32;1.45;;;9.00;71.80;;;;;;5016782;28;20041;-64
2023/04/03 13:02:29;;;;;;;3.88;1.20;;;9.20;72.70;;;;;;5048535;28;20040;-62
2023/04/03 13:04:58;;;;;;;5.03;1.50;;;9.30;71.90;;;;;;5024665;28;20067;-63
2023/04/03 13:07:31;;;;;;;4.75;1.73;;;9.20;71.20;;;;;;5036164;28;20149;-63
2023/04/03 13:10:18;;;;;;;3.28;1.00;;;9.30;70.60;;;;;;5039825;28;20124;-63
2023/04/03 13:12:58;;;;;;;4.72;1.40;;;9.40;70.90;;;;;;5018089;28;20041;-63
2023/04/03 13:15:30;;;;;;;2.72;1.00;;;9.50;71.40;;;;;;5008696;28;20082;-63
2023/04/03 13:17:56;;;;;;;3.03;0.82;;;9.40;69.00;;;;;;5016601;28;20032;-62
2023/04/03 13:20:34;;;;;;;3.97;1.13;;;9.30;69.40;;;;;;5001894;28;20045;-62